Time;durP1;ratioP1;P1;durP2;ratioP2;P2;SDS_P1;SDS_P2;PMS_P1;PMS_P2;Temp;Humidity;BMP_temperature;BMP_pressure;BME280_temperature;BME280_humidity;BME280_pressure;Samples;Min_cycle;Max_cycle;Signal;HPM_P1;HPM_P2
2024/01/28 00:02:42;;;;;;;0.50;0.50;;;3.30;98.90;;;;;;10360332;28;20299;-80
2024/01/28 00:07:44;;;;;;;0.50;0.50;;;3.40;98.90;;;;;;10333953;28;20258;-78
2024/01/28 00:12:48;;;;;;;0.60;0.60;;;3.40;99.00;;;;;;10356793;28;20226;-79
2024/01/28 00:17:55;;;;;;;0.50;0.50;;;3.50;99.10;;;;;;10343654;28;20274;-78
2024/01/28 00:22:57;;;;;;;0.60;0.60;;;3.50;99.20;;;;;;10369177;28;20308;-79
2024/01/28 00:28:01;;;;;;;0.50;0.50;;;3.50;99.20;;;;;;10337850;28;20208;-79
2024/01/28 00:33:05;;;;;;;0.50;0.50;;;3.50;98.90;;;;;;10357456;28;20218;-78
2024/01/28 00:38:07;;;;;;;0.50;0.50;;;3.50;99.00;;;;;;10340268;28;20397;-78
2024/01/28 00:43:11;;;;;;;0.50;0.50;;;3.40;99.00;;;;;;10357370;28;20264;-79
2024/01/28 00:48:14;;;;;;;0.60;0.60;;;3.50;98.70;;;;;;10334209;28;20226;-78
2024/01/28 00:53:18;;;;;;;0.50;0.50;;;3.40;98.80;;;;;;10351590;28;20602;-78
2024/01/28 00:58:21;;;;;;;0.50;0.50;;;3.30;98.90;;;;;;10375623;28;20631;-77
2024/01/28 01:03:24;;;;;;;0.40;0.40;;;3.30;99.00;;;;;;10398427;28;20225;-78
2024/01/28 01:08:26;;;;;;;0.57;0.57;;;3.20;99.00;;;;;;10397232;28;20198;-78
2024/01/28 01:13:30;;;;;;;0.40;0.40;;;3.20;99.00;;;;;;10395373;28;20703;-79
2024/01/28 01:18:33;;;;;;;0.50;0.50;;;3.10;99.20;;;;;;10395740;28;20210;-78
2024/01/28 01:23:35;;;;;;;0.50;0.50;;;3.10;99.10;;;;;;10393656;28;20224;-78
2024/01/28 01:28:38;;;;;;;0.47;0.47;;;3.10;98.90;;;;;;10393355;28;20644;-78
2024/01/28 01:33:41;;;;;;;0.40;0.40;;;3.10;98.90;;;;;;10392435;28;20205;-78
2024/01/28 01:38:44;;;;;;;0.43;0.43;;;3.00;99.00;;;;;;10365190;28;20523;-78
2024/01/28 01:43:47;;;;;;;0.53;0.53;;;2.90;99.20;;;;;;10349760;28;20215;-78
2024/01/28 01:48:50;;;;;;;0.40;0.40;;;3.00;99.40;;;;;;10330686;28;20261;-78
2024/01/28 01:53:53;;;;;;;0.50;0.50;;;3.00;99.50;;;;;;10351283;28;20222;-79
2024/01/28 01:58:57;;;;;;;0.50;0.50;;;3.00;99.40;;;;;;10350050;28;20772;-79
2024/01/28 02:03:59;;;;;;;0.50;0.50;;;3.00;99.40;;;;;;10352178;28;20696;-78
2024/01/28 02:09:02;;;;;;;0.50;0.50;;;3.00;99.30;;;;;;10348175;28;20198;-79
2024/01/28 02:14:06;;;;;;;0.40;0.40;;;2.90;99.30;;;;;;10352085;28;20295;-79
2024/01/28 02:19:08;;;;;;;0.50;0.50;;;3.00;99.70;;;;;;10351951;28;20237;-79
2024/01/28 02:24:13;;;;;;;0.40;0.40;;;3.00;99.80;;;;;;10356328;28;20237;-78
2024/01/28 02:29:15;;;;;;;0.30;0.30;;;3.00;99.70;;;;;;10351735;28;20641;-78
2024/01/28 02:34:18;;;;;;;0.40;0.40;;;3.00;99.60;;;;;;10350622;28;20686;-78
2024/01/28 02:39:22;;;;;;;0.40;0.40;;;3.00;99.40;;;;;;10352976;28;20223;-78
2024/01/28 02:44:24;;;;;;;0.40;0.40;;;3.00;99.20;;;;;;10347625;28;20226;-79
2024/01/28 02:49:26;;;;;;;0.47;0.47;;;2.90;99.30;;;;;;10345405;28;20226;-77
2024/01/28 02:54:30;;;;;;;0.50;0.50;;;2.90;99.50;;;;;;10355003;28;20233;-77
2024/01/28 02:59:32;;;;;;;0.50;0.50;;;2.80;99.50;;;;;;10356414;28;20225;-78
2024/01/28 03:04:37;;;;;;;0.47;0.47;;;2.80;99.60;;;;;;10355352;28;20672;-78
2024/01/28 03:09:40;;;;;;;0.40;0.40;;;2.80;99.70;;;;;;10354998;28;20268;-79
2024/01/28 03:14:43;;;;;;;0.40;0.40;;;2.80;99.80;;;;;;10355147;28;20222;-78
2024/01/28 03:19:45;;;;;;;0.60;0.60;;;2.80;99.90;;;;;;10357897;28;20224;-78
2024/01/28 03:24:49;;;;;;;0.50;0.50;;;2.90;99.90;;;;;;10355776;28;20229;-78
2024/01/28 03:29:52;;;;;;;0.40;0.40;;;2.90;99.90;;;;;;10354896;28;20189;-79
2024/01/28 03:34:54;;;;;;;0.50;0.50;;;2.90;99.90;;;;;;10338032;28;20230;-79
2024/01/28 03:39:58;;;;;;;0.50;0.50;;;2.90;99.90;;;;;;10356756;28;20229;-79
2024/01/28 03:45:00;;;;;;;0.50;0.50;;;2.90;99.80;;;;;;10346090;28;20238;-78
2024/01/28 03:50:03;;;;;;;0.50;0.50;;;2.90;99.50;;;;;;10375576;28;20710;-79
2024/01/28 03:55:07;;;;;;;0.50;0.50;;;2.80;99.60;;;;;;10373521;28;20219;-78
2024/01/28 04:00:12;;;;;;;0.60;0.60;;;2.80;99.60;;;;;;10372878;28;20216;-78
2024/01/28 04:05:15;;;;;;;0.50;0.50;;;2.70;99.40;;;;;;10371311;28;20221;-79
2024/01/28 04:10:19;;;;;;;0.60;0.60;;;2.70;99.70;;;;;;10398070;28;20272;-78
2024/01/28 04:15:21;;;;;;;0.80;0.80;;;2.70;99.80;;;;;;10385458;28;20187;-78
2024/01/28 04:20:23;;;;;;;0.70;0.70;;;2.70;99.90;;;;;;10368282;28;20212;-78
2024/01/28 04:25:27;;;;;;;0.80;0.80;;;2.70;99.90;;;;;;10365860;28;20325;-79
2024/01/28 04:30:30;;;;;;;0.90;0.90;;;2.70;99.90;;;;;;10367158;28;20219;-78
2024/01/28 04:35:32;;;;;;;0.50;0.50;;;2.70;99.90;;;;;;10365963;28;20203;-79
2024/01/28 04:40:36;;;;;;;0.70;0.70;;;2.70;99.90;;;;;;10340142;28;20289;-78
2024/01/28 04:45:38;;;;;;;0.80;0.80;;;2.70;99.90;;;;;;10369025;28;20209;-79
2024/01/28 04:50:40;;;;;;;0.70;0.70;;;2.70;99.90;;;;;;10348299;28;20211;-79
2024/01/28 04:55:44;;;;;;;0.70;0.70;;;2.70;99.90;;;;;;10341997;28;20246;-78
2024/01/28 05:00:46;;;;;;;0.70;0.70;;;2.80;99.90;;;;;;10354098;28;20220;-78
2024/01/28 05:05:49;;;;;;;0.67;0.67;;;2.70;99.90;;;;;;10358878;28;20191;-78
2024/01/28 05:10:53;;;;;;;0.70;0.70;;;2.70;99.90;;;;;;10358073;28;20249;-77
2024/01/28 05:15:56;;;;;;;0.70;0.70;;;2.70;99.80;;;;;;10361464;28;20219;-78
2024/01/28 05:21:00;;;;;;;0.70;0.70;;;2.60;99.90;;;;;;10355517;28;20342;-78
2024/01/28 05:26:04;;;;;;;0.60;0.60;;;2.60;99.90;;;;;;10367937;28;20199;-78
2024/01/28 05:31:07;;;;;;;0.70;0.70;;;2.50;99.90;;;;;;10356427;28;20310;-78
2024/01/28 05:36:13;;;;;;;0.70;0.70;;;2.60;99.90;;;;;;10339631;28;20560;-79
2024/01/28 05:41:17;;;;;;;0.70;0.70;;;2.60;99.90;;;;;;10352086;28;20258;-79
2024/01/28 05:46:19;;;;;;;0.60;0.60;;;2.60;99.90;;;;;;10349888;28;20226;-78
2024/01/28 05:51:21;;;;;;;0.70;0.70;;;2.70;99.90;;;;;;10349360;28;20215;-78
2024/01/28 05:56:25;;;;;;;0.70;0.70;;;2.70;99.90;;;;;;10348170;28;20199;-78
2024/01/28 06:01:27;;;;;;;0.70;0.70;;;2.80;99.90;;;;;;10347275;28;20223;-78
2024/01/28 06:06:30;;;;;;;0.70;0.70;;;2.80;99.90;;;;;;10347212;28;20720;-78
2024/01/28 06:11:33;;;;;;;0.60;0.60;;;2.80;99.90;;;;;;10346179;28;20704;-78
2024/01/28 06:16:36;;;;;;;0.60;0.60;;;2.80;99.90;;;;;;10344660;28;20552;-77
2024/01/28 06:21:38;;;;;;;0.63;0.63;;;2.90;99.90;;;;;;10342763;28;20286;-78
2024/01/28 06:26:42;;;;;;;0.70;0.70;;;2.90;99.90;;;;;;10346145;28;20191;-78
2024/01/28 06:31:46;;;;;;;0.80;0.80;;;2.80;99.90;;;;;;10350012;28;20215;-78
2024/01/28 06:36:48;;;;;;;0.70;0.70;;;2.80;99.90;;;;;;10348084;28;20199;-78
2024/01/28 06:41:52;;;;;;;0.63;0.63;;;2.80;99.90;;;;;;10371969;28;20267;-78
2024/01/28 06:46:54;;;;;;;0.50;0.50;;;2.80;99.90;;;;;;10345294;28;20262;-77
2024/01/28 06:51:56;;;;;;;0.60;0.60;;;2.70;99.90;;;;;;10346170;28;20711;-78
2024/01/28 06:57:00;;;;;;;0.80;0.80;;;2.70;99.90;;;;;;10344676;28;20192;-79
2024/01/28 07:02:02;;;;;;;0.80;0.80;;;2.70;99.90;;;;;;10325950;28;20219;-78
2024/01/28 07:07:05;;;;;;;0.80;0.80;;;2.70;99.90;;;;;;10349982;28;20206;-78
2024/01/28 07:12:09;;;;;;;0.80;0.80;;;2.60;99.90;;;;;;10349279;28;20223;-77
2024/01/28 07:17:11;;;;;;;0.80;0.80;;;2.70;99.90;;;;;;10347440;28;20692;-77
2024/01/28 07:22:13;;;;;;;0.77;0.77;;;2.70;99.90;;;;;;10338842;28;20215;-77
2024/01/28 07:27:17;;;;;;;0.80;0.80;;;2.60;99.90;;;;;;10341056;28;20214;-78
2024/01/28 07:32:20;;;;;;;0.67;0.67;;;2.70;99.90;;;;;;10345940;28;20274;-78
2024/01/28 07:37:22;;;;;;;0.80;0.80;;;2.60;99.90;;;;;;10336113;28;20204;-78
2024/01/28 07:42:26;;;;;;;0.80;0.80;;;2.70;99.90;;;;;;10312415;28;20442;-78
2024/01/28 07:47:28;;;;;;;0.70;0.70;;;2.70;99.90;;;;;;10333032;28;20552;-77
2024/01/28 07:52:32;;;;;;;0.90;0.90;;;2.70;99.90;;;;;;10332181;28;20215;-78
2024/01/28 07:57:35;;;;;;;1.10;1.10;;;2.70;99.90;;;;;;10332014;28;20203;-78
2024/01/28 08:02:38;;;;;;;0.80;0.80;;;2.70;99.90;;;;;;10355213;28;20241;-78
2024/01/28 08:07:41;;;;;;;1.00;1.00;;;2.70;99.90;;;;;;10396247;28;20741;-78
2024/01/28 08:12:45;;;;;;;0.90;0.90;;;2.80;99.90;;;;;;10411834;28;20217;-78
2024/01/28 08:17:49;;;;;;;0.87;0.87;;;2.90;99.90;;;;;;10345817;28;20226;-78
2024/01/28 08:22:51;;;;;;;1.00;1.00;;;2.90;99.90;;;;;;10347750;28;20216;-78
2024/01/28 08:27:55;;;;;;;0.90;0.90;;;3.00;99.90;;;;;;10366262;28;20187;-78
2024/01/28 08:32:58;;;;;;;0.70;0.70;;;3.00;99.90;;;;;;10388840;28;20229;-77
2024/01/28 08:38:00;;;;;;;0.50;0.50;;;3.10;99.90;;;;;;10406098;28;20198;-78
2024/01/28 08:43:05;;;;;;;0.50;0.50;;;3.10;99.90;;;;;;10412262;28;20226;-78
2024/01/28 08:48:07;;;;;;;0.50;0.50;;;3.20;99.90;;;;;;10403980;28;20209;-78
2024/01/28 08:53:10;;;;;;;0.60;0.60;;;3.30;99.90;;;;;;10404521;28;20218;-78
2024/01/28 08:58:13;;;;;;;0.40;0.40;;;3.40;99.90;;;;;;10403885;28;20272;-77
2024/01/28 09:03:16;;;;;;;0.70;0.70;;;3.40;99.90;;;;;;10402718;28;20666;-79
2024/01/28 09:08:18;;;;;;;0.50;0.50;;;3.60;99.90;;;;;;10403393;28;20194;-78
2024/01/28 09:13:22;;;;;;;0.43;0.43;;;3.70;99.90;;;;;;10402415;28;20225;-79
2024/01/28 09:18:24;;;;;;;0.60;0.60;;;3.80;99.90;;;;;;10378821;28;20214;-77
2024/01/28 09:23:27;;;;;;;0.67;0.67;;;4.00;99.90;;;;;;10348655;28;20601;-79
2024/01/28 09:28:30;;;;;;;0.70;0.70;;;4.20;99.90;;;;;;10347508;28;20202;-79
2024/01/28 09:33:33;;;;;;;0.50;0.50;;;4.40;99.90;;;;;;10350040;28;20650;-79
2024/01/28 09:38:35;;;;;;;0.60;0.60;;;4.60;99.90;;;;;;10353246;28;20613;-79
2024/01/28 09:43:41;;;;;;;0.70;0.70;;;4.80;99.90;;;;;;10367023;28;20223;-76
2024/01/28 09:48:45;;;;;;;0.70;0.70;;;4.90;99.90;;;;;;10370353;28;20241;-78
2024/01/28 09:53:48;;;;;;;0.50;0.50;;;5.00;99.90;;;;;;10349373;28;20277;-78
2024/01/28 09:58:53;;;;;;;1.00;1.00;;;5.10;99.90;;;;;;10347139;28;20187;-79
2024/01/28 10:03:55;;;;;;;0.70;0.70;;;5.20;99.90;;;;;;10346732;28;20296;-78
2024/01/28 10:08:59;;;;;;;0.80;0.80;;;5.30;99.90;;;;;;10348860;28;20277;-78
2024/01/28 10:14:03;;;;;;;0.77;0.77;;;5.30;99.90;;;;;;10381318;28;20229;-78
2024/01/28 10:19:06;;;;;;;0.80;0.80;;;5.40;99.90;;;;;;10369953;28;20206;-80
2024/01/28 10:24:10;;;;;;;0.70;0.70;;;5.40;99.90;;;;;;10381327;28;20271;-80
2024/01/28 10:29:15;;;;;;;0.90;0.90;;;5.50;99.90;;;;;;10365981;28;20206;-78
2024/01/28 10:34:17;;;;;;;0.60;0.60;;;5.50;99.90;;;;;;10366476;28;20222;-78
2024/01/28 10:39:22;;;;;;;0.63;0.63;;;5.60;99.90;;;;;;10383299;28;20560;-78
2024/01/28 10:44:27;;;;;;;0.80;0.80;;;5.60;99.90;;;;;;10386164;28;20234;-79
2024/01/28 10:49:32;;;;;;;0.70;0.70;;;5.70;99.90;;;;;;10379101;28;20260;-78
2024/01/28 10:54:36;;;;;;;0.60;0.60;;;5.70;99.90;;;;;;10324261;28;20815;-80
2024/01/28 10:59:42;;;;;;;0.70;0.70;;;5.80;99.90;;;;;;10354631;28;20617;-81
2024/01/28 11:04:45;;;;;;;0.70;0.70;;;5.80;99.90;;;;;;10324347;28;20775;-80
2024/01/28 11:09:48;;;;;;;0.70;0.70;;;5.90;99.90;;;;;;10334971;28;20352;-82
2024/01/28 11:14:54;;;;;;;0.70;0.70;;;6.00;99.90;;;;;;10382735;28;20250;-80
2024/01/28 11:20:06;;;;;;;0.50;0.50;;;6.10;99.90;;;;;;10349092;28;20231;-81
2024/01/28 11:25:10;;;;;;;0.80;0.80;;;6.20;99.90;;;;;;10331784;28;20235;-81
2024/01/28 11:30:15;;;;;;;0.70;0.70;;;6.30;99.90;;;;;;10371006;28;20257;-80
2024/01/28 11:35:18;;;;;;;0.60;0.60;;;6.40;99.90;;;;;;10333407;28;20274;-79
2024/01/28 11:40:24;;;;;;;0.60;0.60;;;6.50;99.90;;;;;;10354989;28;20377;-81
2024/01/28 11:45:29;;;;;;;0.60;0.60;;;6.50;99.90;;;;;;10322592;28;20205;-79
2024/01/28 11:50:32;;;;;;;0.50;0.50;;;6.50;99.90;;;;;;10350225;28;20859;-82
2024/01/28 11:55:34;;;;;;;0.60;0.60;;;6.60;99.90;;;;;;10331409;28;20258;-79
2024/01/28 12:00:38;;;;;;;0.50;0.50;;;6.60;99.90;;;;;;10354196;28;20236;-79
2024/01/28 12:05:41;;;;;;;0.50;0.50;;;6.70;99.90;;;;;;10350512;28;20213;-79
2024/01/28 12:10:43;;;;;;;0.60;0.60;;;6.70;99.90;;;;;;10351479;28;20276;-78
2024/01/28 12:15:47;;;;;;;0.50;0.50;;;6.70;99.90;;;;;;10332299;28;20763;-78
2024/01/28 12:20:51;;;;;;;0.50;0.50;;;6.80;99.90;;;;;;10350809;28;20219;-78
2024/01/28 12:25:54;;;;;;;0.60;0.60;;;6.80;99.90;;;;;;10350037;28;20202;-79
2024/01/28 12:30:59;;;;;;;0.50;0.50;;;6.80;99.90;;;;;;10332825;28;20623;-79
2024/01/28 12:36:02;;;;;;;0.50;0.50;;;6.90;99.90;;;;;;10306575;28;20203;-80
2024/01/28 12:41:05;;;;;;;0.67;0.67;;;7.00;99.90;;;;;;10337936;28;20704;-78
2024/01/28 12:46:09;;;;;;;0.60;0.60;;;7.10;99.80;;;;;;10321318;28;20207;-78
2024/01/28 12:51:11;;;;;;;0.43;0.43;;;7.20;99.80;;;;;;10327062;28;20720;-78
2024/01/28 12:56:14;;;;;;;0.50;0.50;;;7.30;99.30;;;;;;10316920;28;20211;-78
2024/01/28 13:01:18;;;;;;;0.50;0.50;;;7.50;98.60;;;;;;10323445;28;20798;-80
2024/01/28 13:06:21;;;;;;;0.60;0.60;;;7.60;98.60;;;;;;10313706;28;20191;-79
2024/01/28 13:11:24;;;;;;;0.50;0.50;;;7.70;98.30;;;;;;10305838;28;20223;-78
2024/01/28 13:16:27;;;;;;;0.50;0.50;;;7.80;97.90;;;;;;10328512;28;20207;-78
2024/01/28 13:21:30;;;;;;;0.50;0.50;;;7.90;97.70;;;;;;10337935;28;20234;-80
2024/01/28 13:26:32;;;;;;;0.50;0.50;;;8.00;97.60;;;;;;10335679;28;20669;-79
2024/01/28 13:31:36;;;;;;;0.40;0.40;;;8.00;97.40;;;;;;10334508;28;20623;-81
2024/01/28 13:36:39;;;;;;;0.47;0.47;;;8.10;97.10;;;;;;10334998;28;20199;-78
2024/01/28 13:41:41;;;;;;;0.40;0.40;;;8.10;96.90;;;;;;10315030;28;20281;-78
2024/01/28 13:46:45;;;;;;;0.60;0.60;;;8.20;96.70;;;;;;10314236;28;20605;-80
2024/01/28 13:51:48;;;;;;;0.40;0.40;;;8.20;96.50;;;;;;10310408;28;20234;-78
2024/01/28 13:56:50;;;;;;;0.50;0.50;;;8.30;96.10;;;;;;10312531;28;20312;-79
2024/01/28 14:01:54;;;;;;;0.40;0.40;;;8.30;95.80;;;;;;10330203;28;20269;-79
2024/01/28 14:06:57;;;;;;;0.60;0.60;;;8.30;95.60;;;;;;10337272;28;20239;-79
2024/01/28 14:11:59;;;;;;;0.40;0.40;;;8.30;95.70;;;;;;10347766;28;20277;-78
2024/01/28 14:17:03;;;;;;;0.40;0.40;;;8.30;95.80;;;;;;10330731;28;20564;-80
2024/01/28 14:22:06;;;;;;;0.30;0.30;;;8.30;95.80;;;;;;10308620;28;20243;-80
2024/01/28 14:27:09;;;;;;;0.33;0.33;;;8.40;95.60;;;;;;10323701;28;20230;-79
2024/01/28 14:32:13;;;;;;;0.30;0.30;;;8.40;95.60;;;;;;10361061;28;20697;-78
2024/01/28 14:37:15;;;;;;;0.50;0.50;;;8.30;95.20;;;;;;10360622;28;20195;-80
2024/01/28 14:42:18;;;;;;;0.50;0.50;;;8.30;94.80;;;;;;10331776;28;20595;-79
2024/01/28 14:47:22;;;;;;;0.50;0.50;;;8.20;94.90;;;;;;10318065;28;20199;-77
2024/01/28 14:52:24;;;;;;;0.50;0.50;;;8.20;95.30;;;;;;10314617;28;20222;-79
2024/01/28 14:57:27;;;;;;;0.40;0.40;;;8.10;95.40;;;;;;10320641;28;20199;-77
2024/01/28 15:02:31;;;;;;;0.50;0.50;;;8.10;95.40;;;;;;10441912;23;20240;-76
2024/01/28 15:07:33;;;;;;;0.50;0.50;;;8.10;95.30;;;;;;10453121;28;20670;-77
2024/01/28 15:12:36;;;;;;;0.60;0.60;;;8.10;95.20;;;;;;10458225;28;20612;-77
2024/01/28 15:17:39;;;;;;;0.60;0.60;;;8.00;95.30;;;;;;10453653;28;20259;-76
2024/01/28 15:22:42;;;;;;;0.50;0.50;;;8.00;95.30;;;;;;10455716;28;20259;-76
2024/01/28 15:27:44;;;;;;;0.53;0.53;;;7.90;95.20;;;;;;10451831;28;20634;-79
2024/01/28 15:32:48;;;;;;;0.60;0.60;;;7.80;95.30;;;;;;10454502;28;20598;-78
2024/01/28 15:37:51;;;;;;;0.70;0.70;;;7.80;95.20;;;;;;10450255;28;21252;-78
2024/01/28 15:42:54;;;;;;;0.50;0.50;;;7.80;95.50;;;;;;10455206;28;20221;-76
2024/01/28 15:47:57;;;;;;;0.70;0.70;;;7.70;95.50;;;;;;10448772;28;20332;-78
2024/01/28 15:53:00;;;;;;;0.50;0.50;;;7.60;95.60;;;;;;10433145;28;20218;-78
2024/01/28 15:58:02;;;;;;;0.70;0.70;;;7.60;95.60;;;;;;10417937;28;20202;-78
2024/01/28 16:03:06;;;;;;;0.50;0.50;;;7.50;95.60;;;;;;10417802;28;20222;-77
2024/01/28 16:08:11;;;;;;;0.70;0.70;;;7.40;95.60;;;;;;10415858;28;20194;-78
2024/01/28 16:13:14;;;;;;;0.53;0.53;;;7.30;95.60;;;;;;10397857;28;20217;-76
2024/01/28 16:18:18;;;;;;;0.60;0.60;;;7.30;95.60;;;;;;10414708;28;20247;-75
2024/01/28 16:23:20;;;;;;;0.50;0.50;;;7.20;95.30;;;;;;10395333;28;20233;-77
2024/01/28 16:28:23;;;;;;;0.50;0.50;;;7.10;95.60;;;;;;10393784;28;20567;-78
2024/01/28 16:33:26;;;;;;;0.50;0.50;;;7.00;95.50;;;;;;10411511;28;20619;-76
2024/01/28 16:38:29;;;;;;;0.50;0.50;;;6.90;95.60;;;;;;10402088;28;20623;-76
2024/01/28 16:43:31;;;;;;;0.50;0.50;;;6.70;95.70;;;;;;10441771;28;20208;-77
2024/01/28 16:48:35;;;;;;;0.50;0.50;;;6.60;95.80;;;;;;10490810;28;20674;-79
2024/01/28 16:53:37;;;;;;;0.40;0.40;;;6.60;96.00;;;;;;10489600;28;20539;-78
2024/01/28 16:58:40;;;;;;;0.50;0.50;;;6.50;96.00;;;;;;10488313;28;20223;-78
2024/01/28 17:03:43;;;;;;;0.50;0.50;;;6.50;96.10;;;;;;10490385;28;20205;-76
2024/01/28 17:08:46;;;;;;;0.40;0.40;;;6.40;96.10;;;;;;10484436;28;20232;-76
2024/01/28 17:13:48;;;;;;;0.50;0.50;;;6.30;96.30;;;;;;10486158;28;20251;-77
2024/01/28 17:18:52;;;;;;;0.40;0.40;;;6.40;96.40;;;;;;10466875;28;20221;-76
2024/01/28 17:23:54;;;;;;;0.50;0.50;;;6.30;96.20;;;;;;10483824;28;20584;-77
2024/01/28 17:28:57;;;;;;;0.40;0.40;;;6.40;96.40;;;;;;10471612;28;20276;-77
2024/01/28 17:34:01;;;;;;;0.40;0.40;;;6.30;96.00;;;;;;10402677;28;20204;-76
2024/01/28 17:39:04;;;;;;;0.43;0.43;;;6.30;96.30;;;;;;10446626;28;20220;-77
2024/01/28 17:44:06;;;;;;;0.40;0.40;;;6.20;95.90;;;;;;10480655;28;20216;-76
2024/01/28 17:49:10;;;;;;;0.40;0.40;;;6.10;95.90;;;;;;10486376;28;20697;-77
2024/01/28 17:54:14;;;;;;;0.50;0.50;;;6.00;95.90;;;;;;10486337;28;20189;-77
2024/01/28 17:59:16;;;;;;;0.50;0.50;;;6.00;95.70;;;;;;10470175;28;20237;-79
2024/01/28 18:04:20;;;;;;;0.40;0.40;;;5.90;95.60;;;;;;10416940;28;20633;-77
2024/01/28 18:09:22;;;;;;;0.40;0.40;;;5.80;95.30;;;;;;10450847;28;20279;-77
2024/01/28 18:14:25;;;;;;;0.40;0.40;;;5.80;95.50;;;;;;10446842;28;20197;-80
2024/01/28 18:19:29;;;;;;;0.40;0.40;;;5.70;95.50;;;;;;10451965;28;20267;-80
2024/01/28 18:24:31;;;;;;;0.40;0.40;;;5.70;95.60;;;;;;10439531;28;20217;-77
2024/01/28 18:29:33;;;;;;;0.40;0.40;;;5.60;95.60;;;;;;10438479;28;20686;-79
2024/01/28 18:34:37;;;;;;;0.40;0.40;;;5.60;95.70;;;;;;10437479;28;20194;-77
2024/01/28 18:39:40;;;;;;;0.50;0.50;;;5.50;96.00;;;;;;10431719;28;20698;-78
2024/01/28 18:44:44;;;;;;;0.40;0.40;;;5.40;96.00;;;;;;10433979;28;20624;-80
2024/01/28 18:49:48;;;;;;;0.50;0.50;;;5.30;96.00;;;;;;10432926;28;20220;-79
2024/01/28 18:54:50;;;;;;;0.47;0.47;;;5.20;96.20;;;;;;10429464;28;20205;-78
2024/01/28 18:59:53;;;;;;;0.50;0.50;;;5.20;96.30;;;;;;10448099;28;20279;-78
2024/01/28 19:04:58;;;;;;;0.40;0.40;;;5.10;96.20;;;;;;10479024;28;20296;-76
2024/01/28 19:10:00;;;;;;;0.40;0.40;;;5.10;96.30;;;;;;10441574;28;20221;-78
2024/01/28 19:15:03;;;;;;;0.50;0.50;;;5.00;96.30;;;;;;10439963;28;20201;-77
2024/01/28 19:20:09;;;;;;;0.40;0.40;;;5.00;96.40;;;;;;10413938;28;20276;-76
2024/01/28 19:25:16;;;;;;;0.50;0.50;;;4.90;96.20;;;;;;10455416;28;20225;-78
2024/01/28 19:30:18;;;;;;;0.40;0.40;;;4.80;96.40;;;;;;10464728;28;20228;-77
2024/01/28 19:35:22;;;;;;;0.50;0.50;;;4.70;96.50;;;;;;10454144;28;20197;-78
2024/01/28 19:40:24;;;;;;;0.40;0.40;;;4.70;96.80;;;;;;10455312;28;20229;-80
2024/01/28 19:45:27;;;;;;;0.30;0.30;;;4.60;96.50;;;;;;10445269;28;20224;-79
2024/01/28 19:50:30;;;;;;;0.40;0.40;;;4.70;96.60;;;;;;10468191;28;20213;-82
2024/01/28 19:55:33;;;;;;;0.50;0.50;;;4.70;96.60;;;;;;10441591;28;20251;-79
2024/01/28 20:00:35;;;;;;;0.50;0.50;;;4.60;96.60;;;;;;10448606;28;20229;-80
2024/01/28 20:05:39;;;;;;;0.40;0.40;;;4.60;96.70;;;;;;10414648;28;20698;-80
2024/01/28 20:10:42;;;;;;;0.40;0.40;;;4.50;96.60;;;;;;10433031;28;20218;-80
2024/01/28 20:15:45;;;;;;;0.40;0.40;;;4.50;96.70;;;;;;10491328;28;20174;-82
2024/01/28 20:20:49;;;;;;;0.50;0.50;;;4.50;96.90;;;;;;10467391;28;20225;-81
2024/01/28 20:25:54;;;;;;;0.40;0.40;;;4.50;96.90;;;;;;10470434;28;20819;-81
2024/01/28 20:30:56;;;;;;;0.30;0.30;;;4.40;97.00;;;;;;10480944;28;20225;-81
2024/01/28 20:36:00;;;;;;;0.40;0.40;;;4.30;97.10;;;;;;10470575;28;20210;-79
2024/01/28 20:41:03;;;;;;;0.43;0.43;;;4.30;97.00;;;;;;10446079;28;20630;-79
2024/01/28 20:46:05;;;;;;;0.40;0.40;;;4.30;97.10;;;;;;10483157;28;20217;-80
2024/01/28 20:51:09;;;;;;;0.30;0.30;;;4.30;96.90;;;;;;10452066;28;20216;-79
2024/01/28 20:56:12;;;;;;;0.40;0.40;;;4.40;96.70;;;;;;10478323;28;20223;-81
2024/01/28 21:01:14;;;;;;;0.30;0.30;;;4.50;96.50;;;;;;10484104;28;20225;-79
2024/01/28 21:06:18;;;;;;;0.40;0.40;;;4.40;96.40;;;;;;10462987;28;20222;-80
2024/01/28 21:11:20;;;;;;;0.40;0.40;;;4.50;96.60;;;;;;10468769;28;20640;-78
2024/01/28 21:16:22;;;;;;;0.40;0.40;;;4.50;96.00;;;;;;10448700;28;20327;-79
2024/01/28 21:21:26;;;;;;;0.50;0.50;;;4.50;95.90;;;;;;10430983;28;20588;-78
2024/01/28 21:26:29;;;;;;;0.50;0.50;;;4.40;96.10;;;;;;10422098;28;20710;-79
2024/01/28 21:31:31;;;;;;;0.30;0.30;;;4.20;96.20;;;;;;10439489;28;20225;-78
2024/01/28 21:36:36;;;;;;;0.20;0.20;;;4.10;96.50;;;;;;10414033;28;20197;-79
2024/01/28 21:41:38;;;;;;;0.30;0.30;;;4.10;96.70;;;;;;10433740;28;20243;-78
2024/01/28 21:46:41;;;;;;;0.20;0.20;;;4.10;96.60;;;;;;10462153;28;20224;-78
2024/01/28 21:51:45;;;;;;;0.20;0.20;;;4.10;96.60;;;;;;10449772;28;20224;-78
2024/01/28 21:56:47;;;;;;;0.30;0.30;;;4.10;96.50;;;;;;10440514;28;20194;-78
2024/01/28 22:01:50;;;;;;;0.30;0.30;;;4.10;96.50;;;;;;10416391;28;20291;-80
2024/01/28 22:06:53;;;;;;;0.30;0.30;;;4.10;96.70;;;;;;10431510;28;20217;-78
2024/01/28 22:11:56;;;;;;;0.30;0.30;;;4.00;96.80;;;;;;10419670;28;20230;-78
2024/01/28 22:16:58;;;;;;;0.30;0.30;;;4.00;96.70;;;;;;10419031;28;21075;-79
2024/01/28 22:22:02;;;;;;;0.27;0.27;;;4.00;96.70;;;;;;10440566;28;20311;-76
2024/01/28 22:27:05;;;;;;;0.20;0.20;;;3.90;96.90;;;;;;10416592;28;20264;-77
2024/01/28 22:32:08;;;;;;;0.20;0.20;;;3.90;97.10;;;;;;10432363;28;20214;-78
2024/01/28 22:37:11;;;;;;;0.30;0.30;;;3.90;97.10;;;;;;10429537;28;20197;-78
2024/01/28 22:42:14;;;;;;;0.30;0.30;;;3.80;97.10;;;;;;10431900;28;20217;-77
2024/01/28 22:47:16;;;;;;;0.30;0.30;;;3.80;97.10;;;;;;10430665;28;20217;-78
2024/01/28 22:52:20;;;;;;;0.30;0.30;;;3.80;97.30;;;;;;10429543;28;20227;-77
2024/01/28 22:57:22;;;;;;;0.30;0.30;;;3.70;97.30;;;;;;10410521;28;20198;-78
2024/01/28 23:02:28;;;;;;;0.20;0.20;;;3.70;97.50;;;;;;10427663;28;20233;-77
2024/01/28 23:07:32;;;;;;;0.37;0.37;;;3.70;97.40;;;;;;10428393;28;20221;-78
2024/01/28 23:12:35;;;;;;;0.30;0.30;;;3.70;97.90;;;;;;10433069;28;20231;-78
2024/01/28 23:17:37;;;;;;;0.40;0.40;;;3.70;97.60;;;;;;10432644;28;20604;-77
2024/01/28 23:22:41;;;;;;;0.30;0.30;;;3.70;97.60;;;;;;10413602;28;20213;-80
2024/01/28 23:27:45;;;;;;;0.37;0.37;;;3.70;97.80;;;;;;10430867;28;20198;-78
2024/01/28 23:32:47;;;;;;;0.40;0.40;;;3.60;97.90;;;;;;10428452;28;20276;-78
2024/01/28 23:37:51;;;;;;;0.40;0.40;;;3.60;97.80;;;;;;10427292;28;20201;-79
2024/01/28 23:42:54;;;;;;;0.30;0.30;;;3.60;97.90;;;;;;10427714;28;20661;-77
2024/01/28 23:47:56;;;;;;;0.30;0.30;;;3.60;97.90;;;;;;10431034;28;20560;-79
2024/01/28 23:53:00;;;;;;;0.40;0.40;;;3.60;98.10;;;;;;10438069;28;20228;-79
2024/01/28 23:58:02;;;;;;;0.30;0.30;;;3.60;98.00;;;;;;10441986;28;20205;-80
